Time;durP1;ratioP1;P1;durP2;ratioP2;P2;SDS_P1;SDS_P2;PMS_P1;PMS_P2;Temp;Humidity;BMP_temperature;BMP_pressure;BME280_temperature;BME280_humidity;BME280_pressure;Samples;Min_cycle;Max_cycle;Signal;HPM_P1;HPM_P2
2023/10/22 00:02:16;;;;;;;;;;;;;;;16.94;45.17;100599.94;5075761;28;1161;-49
2023/10/22 00:04:42;;;;;;;;;;;;;;;16.91;45.20;100611.47;5089388;28;1174;-48
2023/10/22 00:07:07;;;;;;;;;;;;;;;16.85;45.29;100607.91;5089256;28;1132;-49
2023/10/22 00:09:33;;;;;;;;;;;;;;;16.81;45.10;100603.25;5078724;28;1090;-47
2023/10/22 00:11:58;;;;;;;;;;;;;;;16.94;45.38;100610.91;5082569;28;1166;-48
2023/10/22 00:14:24;;;;;;;;;;;;;;;17.45;46.45;100599.69;5081812;28;1905;-48
2023/10/22 00:16:49;;;;;;;;;;;;;;;17.12;46.57;100595.75;5076197;28;1094;-45
2023/10/22 00:19:15;;;;;;;;;;;;;;;17.04;46.14;100594.41;5092823;28;1143;-51
2023/10/22 00:21:40;;;;;;;;;;;;;;;17.84;46.86;100597.25;5095109;28;1177;-47
2023/10/22 00:24:06;;;;;;;;;;;;;;;17.36;47.29;100604.16;5086395;28;1212;-50
2023/10/22 00:26:32;;;;;;;;;;;;;;;17.24;46.64;100603.66;5099646;28;1055;-50
2023/10/22 00:28:57;;;;;;;;;;;;;;;17.08;46.15;100594.66;5098569;28;1097;-48
2023/10/22 00:31:23;;;;;;;;;;;;;;;17.07;45.78;100609.50;5099083;28;1142;-47
2023/10/22 00:33:48;;;;;;;;;;;;;;;17.28;46.24;100607.50;5087786;28;1975;-47
2023/10/22 00:36:14;;;;;;;;;;;;;;;17.44;47.20;100598.03;5074057;28;1051;-49
2023/10/22 00:38:40;;;;;;;;;;;;;;;17.17;46.98;100598.47;5078546;28;1070;-49
2023/10/22 00:41:05;;;;;;;;;;;;;;;17.16;46.20;100596.00;5078999;28;1221;-49
2023/10/22 00:43:30;;;;;;;;;;;;;;;17.04;45.99;100605.41;5060728;28;1090;-47
2023/10/22 00:45:57;;;;;;;;;;;;;;;18.02;47.01;100610.34;5092953;28;1050;-50
2023/10/22 00:48:23;;;;;;;;;;;;;;;17.39;47.39;100600.84;5085927;28;1113;-48
2023/10/22 00:50:48;;;;;;;;;;;;;;;17.30;46.96;100599.78;5044222;28;1104;-46
2023/10/22 00:53:14;;;;;;;;;;;;;;;17.17;46.37;100605.91;5072806;28;1984;-50
2023/10/22 00:55:40;;;;;;;;;;;;;;;17.14;45.98;100603.69;5074675;28;1206;-49
2023/10/22 00:58:05;;;;;;;;;;;;;;;17.10;45.52;100604.25;5061215;28;1158;-47
2023/10/22 01:00:32;;;;;;;;;;;;;;;17.78;46.86;100610.19;5097960;28;1194;-44
2023/10/22 01:02:58;;;;;;;;;;;;;;;17.27;47.21;100609.41;5080183;28;1085;-46
2023/10/22 01:05:24;;;;;;;;;;;;;;;17.17;46.58;100603.16;5078959;28;1213;-47
2023/10/22 01:07:50;;;;;;;;;;;;;;;17.19;46.10;100609.19;5078527;28;1075;-49
2023/10/22 01:10:15;;;;;;;;;;;;;;;17.04;45.92;100618.28;5090629;28;1082;-49
2023/10/22 01:12:41;;;;;;;;;;;;;;;17.06;45.20;100619.66;5098215;28;1133;-48
2023/10/22 01:15:07;;;;;;;;;;;;;;;17.03;45.28;100620.22;5066646;28;1906;-46
2023/10/22 01:17:32;;;;;;;;;;;;;;;16.99;45.17;100624.63;5098552;28;1217;-50
2023/10/22 01:19:58;;;;;;;;;;;;;;;16.81;45.28;100623.28;5098250;28;1117;-49
2023/10/22 01:22:23;;;;;;;;;;;;;;;16.86;45.03;100619.72;5067511;28;1315;-50
2023/10/22 01:24:49;;;;;;;;;;;;;;;17.70;45.71;100641.91;5083059;28;1074;-50
2023/10/22 01:27:14;;;;;;;;;;;;;;;17.32;46.71;100627.81;5086100;28;1132;-48
2023/10/22 01:29:40;;;;;;;;;;;;;;;17.03;46.61;100625.72;5091293;28;1090;-47
2023/10/22 01:32:05;;;;;;;;;;;;;;;16.97;46.25;100626.00;5090304;28;1042;-47
2023/10/22 01:34:32;;;;;;;;;;;;;;;17.01;45.47;100635.34;5089708;28;1902;-49
2023/10/22 01:36:57;;;;;;;;;;;;;;;17.24;45.80;100639.38;5085722;28;1129;-51
2023/10/22 01:39:23;;;;;;;;;;;;;;;17.37;46.78;100637.94;5083140;28;1094;-50
2023/10/22 01:41:49;;;;;;;;;;;;;;;17.09;46.66;100632.03;5097551;28;1081;-46
2023/10/22 01:44:15;;;;;;;;;;;;;;;17.01;46.10;100633.44;5091873;28;1070;-48
2023/10/22 01:46:41;;;;;;;;;;;;;;;17.76;46.40;100632.50;5077363;28;856;-50
2023/10/22 01:49:06;;;;;;;;;;;;;;;17.48;47.45;100630.47;5091311;28;1103;-48
2023/10/22 01:51:32;;;;;;;;;;;;;;;17.28;46.91;100634.97;5059368;28;1070;-47
2023/10/22 01:53:57;;;;;;;;;;;;;;;17.16;46.59;100634.47;5076823;28;1967;-46
2023/10/22 01:56:24;;;;;;;;;;;;;;;17.06;46.10;100641.63;5089442;28;1154;-48
2023/10/22 01:58:49;;;;;;;;;;;;;;;16.96;46.04;100641.69;5086635;28;1252;-49
2023/10/22 02:01:15;;;;;;;;;;;;;;;16.97;45.61;100635.09;5059626;28;1232;-50
2023/10/22 02:03:45;;;;;;;;;;;;;;;16.92;45.39;100638.66;5059019;28;1082;-50
2023/10/22 02:06:13;;;;;;;;;;;;;;;17.51;45.96;100632.66;5077047;28;1118;-46
2023/10/22 02:08:39;;;;;;;;;;;;;;;17.34;46.61;100627.53;5090575;28;1113;-51
2023/10/22 02:11:05;;;;;;;;;;;;;;;17.20;46.21;100632.81;5089714;28;839;-48
2023/10/22 02:13:30;;;;;;;;;;;;;;;16.99;46.04;100632.88;5083598;28;1975;-50
2023/10/22 02:15:56;;;;;;;;;;;;;;;17.69;46.62;100631.19;5066007;28;1153;-51
2023/10/22 02:18:21;;;;;;;;;;;;;;;17.51;46.97;100638.97;5082899;28;1107;-49
2023/10/22 02:20:55;;;;;;;;;;;;;;;17.21;47.14;100627.03;5066516;28;1161;-49
2023/10/22 02:23:21;;;;;;;;;;;;;;;17.20;46.23;100635.56;5086455;28;974;-48
2023/10/22 02:25:46;;;;;;;;;;;;;;;17.04;45.90;100626.53;5095032;28;1274;-47
2023/10/22 02:28:12;;;;;;;;;;;;;;;17.09;45.42;100613.59;5097490;28;1109;-46
2023/10/22 02:30:37;;;;;;;;;;;;;;;16.96;45.48;100629.84;5065209;28;1002;-50
2023/10/22 02:33:03;;;;;;;;;;;;;;;17.48;46.15;100636.78;5097003;28;1984;-50
2023/10/22 02:35:29;;;;;;;;;;;;;;;17.59;47.07;100624.63;5094714;28;1038;-46
2023/10/22 02:37:55;;;;;;;;;;;;;;;17.23;46.85;100618.50;5084780;28;1106;-48
2023/10/22 02:40:20;;;;;;;;;;;;;;;17.12;46.44;100616.91;5089249;28;1209;-49
2023/10/22 02:42:46;;;;;;;;;;;;;;;17.04;45.97;100632.03;5076750;28;1322;-45
2023/10/22 02:45:12;;;;;;;;;;;;;;;17.55;46.49;100637.28;5071967;28;1694;-44
2023/10/22 02:47:38;;;;;;;;;;;;;;;17.57;47.39;100634.25;5075338;28;1052;-48
2023/10/22 02:50:04;;;;;;;;;;;;;;;17.37;46.80;100625.03;5096578;28;1141;-49
2023/10/22 02:52:29;;;;;;;;;;;;;;;17.20;46.54;100624.56;5096209;28;1260;-46
2023/10/22 02:54:55;;;;;;;;;;;;;;;17.22;45.76;100634.19;5083118;28;1905;-51
2023/10/22 02:57:20;;;;;;;;;;;;;;;17.02;45.81;100635.06;5065185;28;1643;-48
2023/10/22 02:59:46;;;;;;;;;;;;;;;17.01;45.49;100638.94;5073743;28;1075;-47
2023/10/22 03:02:11;;;;;;;;;;;;;;;17.06;45.14;100638.88;5096065;28;1184;-47
2023/10/22 03:04:37;;;;;;;;;;;;;;;17.66;46.32;100632.56;5083758;28;1214;-46
2023/10/22 03:07:03;;;;;;;;;;;;;;;17.40;47.23;100640.97;5095762;28;1227;-48
2023/10/22 03:09:28;;;;;;;;;;;;;;;17.21;46.53;100643.53;5096956;28;1127;-47
2023/10/22 03:11:54;;;;;;;;;;;;;;;17.10;46.18;100641.91;5076568;28;1594;-50
2023/10/22 03:14:22;;;;;;;;;;;;;;;17.11;45.67;100649.06;5095896;28;1971;-48
2023/10/22 03:16:48;;;;;;;;;;;;;;;17.01;45.57;100646.31;5076246;28;1188;-50
2023/10/22 03:19:13;;;;;;;;;;;;;;;16.97;45.27;100640.59;5090345;28;1155;-50
2023/10/22 03:21:39;;;;;;;;;;;;;;;18.06;46.31;100657.34;5086185;28;1185;-53
2023/10/22 03:24:07;;;;;;;;;;;;;;;17.39;47.10;100660.47;5059067;28;1209;-52
2023/10/22 03:26:35;;;;;;;;;;;;;;;17.16;46.90;100659.19;5065903;28;1362;-50
2023/10/22 03:29:02;;;;;;;;;;;;;;;17.12;45.93;100661.66;5077958;28;1308;-51
2023/10/22 03:31:27;;;;;;;;;;;;;;;17.03;45.78;100663.38;5095376;28;1128;-50
2023/10/22 03:33:53;;;;;;;;;;;;;;;16.98;45.56;100655.94;5076683;28;1967;-52
2023/10/22 03:36:19;;;;;;;;;;;;;;;16.96;45.26;100658.16;5084573;28;956;-54
2023/10/22 03:38:44;;;;;;;;;;;;;;;16.94;45.00;100660.34;5082128;28;1271;-53
2023/10/22 03:41:09;;;;;;;;;;;;;;;16.89;44.85;100663.13;5087775;28;1157;-53
2023/10/22 03:43:35;;;;;;;;;;;;;;;16.87;44.93;100663.38;5089766;28;1138;-50
2023/10/22 03:46:02;;;;;;;;;;;;;;;17.57;46.02;100662.59;5084692;28;1065;-52
2023/10/22 03:48:27;;;;;;;;;;;;;;;17.13;46.40;100671.56;5091888;28;2559;-50
2023/10/22 03:50:53;;;;;;;;;;;;;;;17.07;46.45;100667.22;5093666;28;1995;-45
2023/10/22 03:53:19;;;;;;;;;;;;;;;17.00;46.09;100669.41;5095080;28;1984;-49
2023/10/22 03:55:44;;;;;;;;;;;;;;;17.78;46.98;100673.47;5100130;28;1891;-50
2023/10/22 03:58:10;;;;;;;;;;;;;;;17.22;47.54;100669.91;5096014;28;2212;-50
2023/10/22 04:00:35;;;;;;;;;;;;;;;17.08;46.96;100669.66;5081718;28;2060;-48
2023/10/22 04:03:01;;;;;;;;;;;;;;;17.02;46.41;100672.72;5095460;28;2093;-47
2023/10/22 04:05:27;;;;;;;;;;;;;;;17.65;47.01;100677.66;5095377;28;1198;-49
2023/10/22 04:07:52;;;;;;;;;;;;;;;17.31;47.15;100674.81;5085501;28;1181;-48
2023/10/22 04:10:18;;;;;;;;;;;;;;;17.16;46.61;100681.19;5079022;28;980;-47
2023/10/22 04:12:43;;;;;;;;;;;;;;;17.08;46.29;100680.66;5090372;28;1019;-48
2023/10/22 04:15:09;;;;;;;;;;;;;;;17.04;45.56;100676.81;5085784;28;1914;-46
2023/10/22 04:17:35;;;;;;;;;;;;;;;16.89;45.67;100679.59;5086160;28;1429;-48
2023/10/22 04:20:00;;;;;;;;;;;;;;;16.86;45.31;100677.41;5078428;28;1557;-48
2023/10/22 04:22:26;;;;;;;;;;;;;;;17.45;45.95;100673.09;5079823;28;1146;-52
2023/10/22 04:24:52;;;;;;;;;;;;;;;17.38;46.80;100675.34;5090734;28;1214;-49
2023/10/22 04:27:17;;;;;;;;;;;;;;;17.09;46.44;100685.03;5089431;28;1028;-49
2023/10/22 04:29:46;;;;;;;;;;;;;;;17.35;46.68;100681.38;5082270;28;1023;-52
2023/10/22 04:32:11;;;;;;;;;;;;;;;17.58;47.03;100696.41;5089873;28;1209;-54
2023/10/22 04:34:37;;;;;;;;;;;;;;;17.94;46.66;100688.81;5094219;28;1992;-54
2023/10/22 04:37:04;;;;;;;;;;;;;;;18.07;46.48;100692.03;5091064;28;1154;-52
2023/10/22 04:39:30;;;;;;;;;;;;;;;17.72;47.56;100691.91;5084394;28;1046;-54
2023/10/22 04:41:55;;;;;;;;;;;;;;;17.55;47.90;100697.78;5086929;28;1158;-54
2023/10/22 04:44:21;;;;;;;;;;;;;;;17.43;48.44;100694.53;5095861;28;1069;-51
2023/10/22 04:46:47;;;;;;;;;;;;;;;17.28;48.99;100695.44;5087268;28;1018;-50
2023/10/22 04:49:13;;;;;;;;;;;;;;;17.22;48.97;100696.53;5091365;28;1043;-54
2023/10/22 04:51:39;;;;;;;;;;;;;;;17.12;49.50;100704.81;5079594;28;1193;-50
2023/10/22 04:54:04;;;;;;;;;;;;;;;17.06;49.86;100701.25;5084023;28;1901;-54
2023/10/22 04:56:30;;;;;;;;;;;;;;;16.97;49.83;100712.00;5090878;28;1087;-48
2023/10/22 04:58:55;;;;;;;;;;;;;;;16.91;50.13;100705.69;5091378;28;1177;-50
2023/10/22 05:01:21;;;;;;;;;;;;;;;16.86;50.44;100716.66;5090428;28;1026;-52
2023/10/22 05:03:46;;;;;;;;;;;;;;;16.82;50.57;100723.00;5084115;28;1950;-51
2023/10/22 05:06:12;;;;;;;;;;;;;;;16.75;50.83;100715.84;5098260;28;1181;-53
2023/10/22 05:08:38;;;;;;;;;;;;;;;16.71;51.04;100722.16;5090535;28;1035;-53
2023/10/22 05:11:05;;;;;;;;;;;;;;;16.65;51.17;100718.59;5093367;28;1047;-52
2023/10/22 05:13:31;;;;;;;;;;;;;;;16.65;51.38;100720.50;5077872;28;1905;-49
2023/10/22 05:15:57;;;;;;;;;;;;;;;16.53;51.58;100727.09;5096667;28;1070;-50
2023/10/22 05:18:22;;;;;;;;;;;;;;;16.53;51.49;100737.25;5095474;28;1106;-53
2023/10/22 05:20:51;;;;;;;;;;;;;;;17.50;49.64;100741.81;5077170;28;1087;-49
2023/10/22 05:23:16;;;;;;;;;;;;;;;17.20;50.23;100750.97;5089297;28;995;-50
2023/10/22 05:25:42;;;;;;;;;;;;;;;16.90;51.34;100749.91;5086421;28;1097;-54
2023/10/22 05:28:07;;;;;;;;;;;;;;;16.76;51.49;100757.88;5095209;28;983;-52
2023/10/22 05:30:33;;;;;;;;;;;;;;;16.68;51.62;100756.47;5086751;28;1106;-49
2023/10/22 05:33:00;;;;;;;;;;;;;;;16.63;51.79;100758.41;5095589;28;1839;-48
2023/10/22 05:35:26;;;;;;;;;;;;;;;16.58;51.85;100756.50;5088311;28;1909;-49
2023/10/22 05:37:52;;;;;;;;;;;;;;;16.56;52.09;100761.41;5092818;28;1074;-53
2023/10/22 05:40:18;;;;;;;;;;;;;;;17.27;50.94;100760.56;5097226;28;1105;-53
2023/10/22 05:42:43;;;;;;;;;;;;;;;17.36;50.72;100771.81;5097024;28;982;-55
2023/10/22 05:45:09;;;;;;;;;;;;;;;16.95;51.71;100769.13;5083869;28;1133;-53
2023/10/22 05:47:35;;;;;;;;;;;;;;;16.82;51.96;100766.94;5096870;28;1090;-54
2023/10/22 05:50:00;;;;;;;;;;;;;;;16.75;52.22;100776.25;5083735;28;1058;-52
2023/10/22 05:52:27;;;;;;;;;;;;;;;16.69;52.35;100771.88;5086389;28;1369;-51
2023/10/22 05:54:53;;;;;;;;;;;;;;;16.59;52.56;100763.59;5106305;28;1965;-47
2023/10/22 05:57:21;;;;;;;;;;;;;;;16.56;52.52;100764.16;5091076;28;1450;-49
2023/10/22 05:59:46;;;;;;;;;;;;;;;16.56;52.76;100761.41;5080045;28;1031;-48
2023/10/22 06:02:12;;;;;;;;;;;;;;;17.55;50.52;100760.22;5087350;28;1031;-54
2023/10/22 06:04:37;;;;;;;;;;;;;;;17.00;52.11;100771.88;5085978;28;2100;-55
2023/10/22 06:07:04;;;;;;;;;;;;;;;16.83;52.56;100768.53;5093970;28;1097;-57
2023/10/22 06:09:29;;;;;;;;;;;;;;;16.70;52.67;100770.75;5085745;28;1054;-53
2023/10/22 06:11:55;;;;;;;;;;;;;;;16.65;52.74;100767.16;5079139;28;1102;-55
2023/10/22 06:14:20;;;;;;;;;;;;;;;16.65;52.92;100764.44;5075207;28;1989;-56
2023/10/22 06:16:45;;;;;;;;;;;;;;;16.63;53.03;100778.44;5087859;28;970;-55
2023/10/22 06:19:13;;;;;;;;;;;;;;;16.53;53.08;100778.44;5085011;28;1095;-54
2023/10/22 06:21:38;;;;;;;;;;;;;;;16.52;53.28;100779.53;5085053;28;1304;-54
2023/10/22 06:24:05;;;;;;;;;;;;;;;17.66;51.45;100772.81;5082905;28;907;-56
2023/10/22 06:26:30;;;;;;;;;;;;;;;17.19;52.41;100768.53;5082101;28;1123;-54
2023/10/22 06:28:56;;;;;;;;;;;;;;;16.97;53.00;100779.84;5096610;28;1610;-55
2023/10/22 06:31:23;;;;;;;;;;;;;;;16.79;53.25;100765.53;5096087;28;1030;-61
2023/10/22 06:33:48;;;;;;;;;;;;;;;16.69;53.31;100774.63;5083558;28;1906;-58
2023/10/22 06:36:17;;;;;;;;;;;;;;;16.64;53.49;100771.84;5086513;28;1109;-57
2023/10/22 06:38:43;;;;;;;;;;;;;;;16.62;53.41;100768.56;5076313;28;1166;-56
2023/10/22 06:41:15;;;;;;;;;;;;;;;16.56;53.38;100775.97;5059158;28;1122;-57
2023/10/22 06:43:41;;;;;;;;;;;;;;;16.48;53.59;100776.53;5080617;28;1276;-55
2023/10/22 06:46:06;;;;;;;;;;;;;;;16.48;53.35;100770.19;5099119;28;927;-60
2023/10/22 06:48:32;;;;;;;;;;;;;;;16.43;53.45;100776.50;5085634;28;887;-59
2023/10/22 06:50:57;;;;;;;;;;;;;;;17.47;52.14;100756.09;5095620;28;1010;-57
2023/10/22 06:53:22;;;;;;;;;;;;;;;17.17;52.72;100757.03;5085391;28;1968;-57
2023/10/22 06:55:48;;;;;;;;;;;;;;;16.89;53.61;100762.81;5065748;28;1156;-60
2023/10/22 06:58:13;;;;;;;;;;;;;;;16.73;53.91;100758.41;5093271;28;1105;-58
2023/10/22 07:00:39;;;;;;;;;;;;;;;16.68;53.61;100761.97;5095105;28;1085;-59
2023/10/22 07:03:04;;;;;;;;;;;;;;;16.62;53.77;100763.09;5087040;28;1853;-59
2023/10/22 07:05:31;;;;;;;;;;;;;;;16.57;53.71;100768.56;5091336;28;1411;-57
2023/10/22 07:07:56;;;;;;;;;;;;;;;17.60;52.16;100763.75;5082133;28;1110;-58
2023/10/22 07:10:22;;;;;;;;;;;;;;;17.23;53.22;100767.69;5085479;28;1051;-58
2023/10/22 07:12:47;;;;;;;;;;;;;;;16.94;53.65;100775.72;5088960;28;1065;-58
2023/10/22 07:15:13;;;;;;;;;;;;;;;16.83;53.76;100771.28;5083545;28;1897;-58
2023/10/22 07:17:38;;;;;;;;;;;;;;;16.79;53.66;100764.72;5089818;28;1087;-57
2023/10/22 07:20:05;;;;;;;;;;;;;;;16.70;53.67;100762.50;5086970;28;1051;-56
2023/10/22 07:22:31;;;;;;;;;;;;;;;16.62;53.95;100770.47;5089155;28;1027;-52
2023/10/22 07:24:56;;;;;;;;;;;;;;;16.63;53.68;100763.91;5091577;28;1111;-57
2023/10/22 07:27:22;;;;;;;;;;;;;;;16.59;53.74;100763.59;5091357;28;1066;-57
2023/10/22 07:29:47;;;;;;;;;;;;;;;16.53;53.95;100757.28;5097594;28;1126;-57
2023/10/22 07:32:13;;;;;;;;;;;;;;;17.60;52.31;100765.69;5099175;28;1360;-55
2023/10/22 07:34:38;;;;;;;;;;;;;;;17.06;53.55;100762.50;5091185;28;1959;-59
2023/10/22 07:37:04;;;;;;;;;;;;;;;16.87;54.06;100759.50;5081621;28;1376;-58
2023/10/22 07:39:29;;;;;;;;;;;;;;;16.74;53.90;100760.84;5082956;28;1367;-56
2023/10/22 07:41:54;;;;;;;;;;;;;;;16.72;53.94;100773.25;5089907;28;1332;-59
2023/10/22 07:44:20;;;;;;;;;;;;;;;16.67;53.99;100776.78;5098805;28;1041;-59
2023/10/22 07:46:45;;;;;;;;;;;;;;;16.63;53.81;100767.44;5089775;28;1430;-56
2023/10/22 07:49:11;;;;;;;;;;;;;;;16.60;53.78;100774.31;5099330;28;1003;-55
2023/10/22 07:51:36;;;;;;;;;;;;;;;16.51;54.07;100767.72;5099414;28;1280;-54
2023/10/22 07:54:02;;;;;;;;;;;;;;;16.52;53.99;100774.03;5090898;28;1907;-55
2023/10/22 07:56:28;;;;;;;;;;;;;;;16.61;54.17;100772.41;5091523;28;1111;-56
2023/10/22 07:58:53;;;;;;;;;;;;;;;17.62;52.46;100768.97;5093686;28;1038;-55
2023/10/22 08:01:19;;;;;;;;;;;;;;;17.05;54.02;100760.84;5079229;28;1119;-56
2023/10/22 08:03:45;;;;;;;;;;;;;;;16.90;54.32;100774.63;5088557;28;2084;-53
2023/10/22 08:06:11;;;;;;;;;;;;;;;16.75;54.40;100768.00;5078962;28;1126;-54
2023/10/22 08:08:36;;;;;;;;;;;;;;;16.75;54.27;100773.50;5089933;28;1297;-57
2023/10/22 08:11:02;;;;;;;;;;;;;;;16.68;54.41;100761.97;5090188;28;967;-56
2023/10/22 08:13:28;;;;;;;;;;;;;;;16.65;54.14;100773.50;5095773;28;1909;-56
2023/10/22 08:15:53;;;;;;;;;;;;;;;16.62;54.09;100773.22;5099125;28;1065;-56
2023/10/22 08:18:19;;;;;;;;;;;;;;;16.57;54.32;100765.81;5082885;28;1043;-56
2023/10/22 08:20:44;;;;;;;;;;;;;;;17.12;53.70;100770.75;5078536;28;1097;-56
2023/10/22 08:23:10;;;;;;;;;;;;;;;17.47;53.09;100763.53;5094711;28;1138;-57
2023/10/22 08:25:36;;;;;;;;;;;;;;;17.06;53.97;100768.00;5088841;28;922;-57
2023/10/22 08:28:02;;;;;;;;;;;;;;;16.88;54.44;100760.31;5094454;28;1130;-56
2023/10/22 08:30:27;;;;;;;;;;;;;;;16.84;54.34;100754.53;5097862;28;1445;-58
2023/10/22 08:32:53;;;;;;;;;;;;;;;16.77;54.17;100760.34;5098506;28;1791;-59
2023/10/22 08:35:18;;;;;;;;;;;;;;;16.71;54.23;100755.94;5098062;28;1986;-56
2023/10/22 08:37:44;;;;;;;;;;;;;;;16.71;54.39;100750.44;5083984;28;1154;-58
2023/10/22 08:40:09;;;;;;;;;;;;;;;16.67;54.12;100759.50;5098745;28;1031;-57
2023/10/22 08:42:35;;;;;;;;;;;;;;;16.65;54.18;100757.03;5097704;28;1014;-56
2023/10/22 08:45:01;;;;;;;;;;;;;;;16.62;54.07;100751.25;5095723;28;1098;-56
2023/10/22 08:47:26;;;;;;;;;;;;;;;16.60;54.02;100754.28;5091958;28;1046;-57
2023/10/22 08:49:52;;;;;;;;;;;;;;;16.57;54.14;100749.34;5079281;28;1385;-57
2023/10/22 08:52:17;;;;;;;;;;;;;;;16.55;54.30;100748.78;5084390;28;1221;-58
2023/10/22 08:54:46;;;;;;;;;;;;;;;16.52;53.97;100746.59;5097209;28;1995;-57
2023/10/22 08:57:11;;;;;;;;;;;;;;;17.12;53.57;100737.78;5087189;28;1313;-57
2023/10/22 08:59:37;;;;;;;;;;;;;;;17.50;53.27;100739.06;5079451;28;1418;-58
2023/10/22 09:02:10;;;;;;;;;;;;;;;17.05;54.40;100738.06;5072163;28;1284;-56
2023/10/22 09:04:35;;;;;;;;;;;;;;;16.93;54.14;100730.13;5076673;28;2101;-55
2023/10/22 09:07:00;;;;;;;;;;;;;;;16.88;54.50;100732.84;5098280;28;975;-55
2023/10/22 09:09:29;;;;;;;;;;;;;;;16.77;54.36;100726.53;5079446;28;1079;-57
2023/10/22 09:11:55;;;;;;;;;;;;;;;16.75;54.27;100735.06;5080992;28;1095;-55
2023/10/22 09:14:21;;;;;;;;;;;;;;;16.74;54.54;100719.69;5093106;28;1980;-56
2023/10/22 09:16:47;;;;;;;;;;;;;;;16.72;54.41;100713.66;5093375;28;1114;-56
2023/10/22 09:19:12;;;;;;;;;;;;;;;16.68;54.34;100707.06;5094432;28;1328;-54
2023/10/22 09:21:41;;;;;;;;;;;;;;;16.73;54.15;100697.97;5093131;28;1138;-55
2023/10/22 09:24:07;;;;;;;;;;;;;;;16.66;53.99;100698.28;5093520;28;1010;-55
2023/10/22 09:26:47;;;;;;;;;;;;;;;16.61;54.28;100684.56;5094938;28;1277;-55
2023/10/22 09:29:13;;;;;;;;;;;;;;;16.55;54.18;100674.66;5094711;28;1390;-56
2023/10/22 09:31:39;;;;;;;;;;;;;;;16.56;53.99;100677.16;5101537;28;1439;-55
2023/10/22 09:34:06;;;;;;;;;;;;;;;16.57;54.17;100675.22;5078982;28;1985;-59
2023/10/22 09:36:32;;;;;;;;;;;;;;;16.55;54.23;100666.44;5066926;28;1095;-55
2023/10/22 09:38:57;;;;;;;;;;;;;;;16.53;54.38;100674.94;5079043;28;1150;-58
2023/10/22 09:41:23;;;;;;;;;;;;;;;16.56;54.13;100663.44;5087379;28;1271;-56
2023/10/22 09:43:51;;;;;;;;;;;;;;;16.54;54.13;100667.56;5097269;28;1351;-56
2023/10/22 09:46:20;;;;;;;;;;;;;;;17.48;53.18;100663.47;5093396;28;1062;-55
2023/10/22 09:48:49;;;;;;;;;;;;;;;17.31;53.69;100664.63;5094380;28;1358;-55
2023/10/22 09:51:17;;;;;;;;;;;;;;;17.03;54.25;100657.88;5090071;28;1125;-56
2023/10/22 09:53:51;;;;;;;;;;;;;;;16.95;54.55;100656.50;5085707;28;1909;-57
2023/10/22 09:56:17;;;;;;;;;;;;;;;16.89;54.70;100657.63;5077399;28;1276;-56
2023/10/22 09:58:43;;;;;;;;;;;;;;;16.90;54.33;100659.25;5095051;28;1281;-56
2023/10/22 10:01:10;;;;;;;;;;;;;;;16.83;54.61;100651.31;5096524;28;1284;-60
2023/10/22 10:03:36;;;;;;;;;;;;;;;16.80;54.58;100662.00;5075483;28;1389;-57
2023/10/22 10:06:03;;;;;;;;;;;;;;;16.77;54.74;100661.47;5095294;28;1505;-56
2023/10/22 10:08:28;;;;;;;;;;;;;;;16.75;54.41;100658.16;5074278;28;1346;-58
2023/10/22 10:10:54;;;;;;;;;;;;;;;16.71;54.48;100665.31;5086554;28;1166;-57
2023/10/22 10:13:19;;;;;;;;;;;;;;;16.70;54.66;100652.69;5093687;28;1910;-55
2023/10/22 10:15:45;;;;;;;;;;;;;;;16.69;54.61;100637.31;5090114;28;994;-55
2023/10/22 10:18:11;;;;;;;;;;;;;;;16.64;54.43;100634.59;5065693;28;1320;-55
2023/10/22 10:20:39;;;;;;;;;;;;;;;16.62;54.45;100642.28;5096197;28;1133;-56
2023/10/22 10:23:05;;;;;;;;;;;;;;;16.59;54.54;100626.34;5078604;28;999;-56
2023/10/22 10:25:31;;;;;;;;;;;;;;;16.57;54.38;100617.59;5093556;28;1106;-56
2023/10/22 10:27:59;;;;;;;;;;;;;;;16.54;54.37;100612.66;5089173;28;1291;-56
2023/10/22 10:30:25;;;;;;;;;;;;;;;16.56;54.22;100619.50;5090516;28;1028;-56
2023/10/22 10:32:51;;;;;;;;;;;;;;;17.82;53.00;100619.53;5075166;28;1910;-56
2023/10/22 10:35:17;;;;;;;;;;;;;;;17.24;54.18;100620.97;5079524;28;1910;-56
2023/10/22 10:38:01;;;;;;;;;;;;;;;17.02;54.61;100624.06;5080592;28;1095;-57
2023/10/22 10:40:43;;;;;;;;;;;;;;;16.92;54.59;100621.38;5095974;28;1045;-55
2023/10/22 10:43:09;;;;;;;;;;;;;;;16.83;54.80;100623.00;5076511;28;1067;-55
2023/10/22 10:45:35;;;;;;;;;;;;;;;16.81;54.93;100606.81;5091922;28;1094;-55
2023/10/22 10:48:01;;;;;;;;;;;;;;;16.77;54.60;100595.56;5085630;28;1359;-55
2023/10/22 10:50:26;;;;;;;;;;;;;;;16.73;54.65;100604.63;5080231;28;1058;-54
2023/10/22 10:52:52;;;;;;;;;;;;;;;16.70;54.57;100602.44;5089394;28;1172;-55
2023/10/22 10:55:20;;;;;;;;;;;;;;;16.65;54.69;100597.81;5077977;28;1985;-55
2023/10/22 10:57:52;;;;;;;;;;;;;;;16.60;54.80;100598.63;5088408;28;1347;-54
2023/10/22 11:00:21;;;;;;;;;;;;;;;16.64;54.57;100584.34;5090121;28;1284;-54
2023/10/22 11:02:47;;;;;;;;;;;;;;;16.60;54.68;100589.56;5076294;28;1867;-55
2023/10/22 11:05:13;;;;;;;;;;;;;;;16.62;54.90;100592.88;5095659;28;1236;-53
2023/10/22 11:07:39;;;;;;;;;;;;;;;16.60;54.51;100600.56;5096322;28;1328;-54
2023/10/22 11:10:08;;;;;;;;;;;;;;;16.56;54.78;100591.22;5096340;28;1257;-54
2023/10/22 11:12:33;;;;;;;;;;;;;;;16.55;54.68;100595.91;5095966;28;1240;-54
2023/10/22 11:14:59;;;;;;;;;;;;;;;16.52;54.75;100614.84;5094292;28;1976;-55
2023/10/22 11:17:26;;;;;;;;;;;;;;;16.51;54.80;100608.53;5095025;28;1256;-56
2023/10/22 11:19:51;;;;;;;;;;;;;;;16.53;54.67;100616.50;5093434;28;1305;-55
2023/10/22 11:22:17;;;;;;;;;;;;;;;17.39;53.86;100611.84;5091286;28;1138;-55
2023/10/22 11:24:42;;;;;;;;;;;;;;;17.29;54.42;100617.38;5083846;28;1016;-55
2023/10/22 11:27:08;;;;;;;;;;;;;;;16.97;54.98;100613.13;5064360;28;1347;-56
2023/10/22 11:29:40;;;;;;;;;;;;;;;16.88;55.02;100610.09;5093960;28;1097;-54
2023/10/22 11:32:09;;;;;;;;;;;;;;;16.79;54.94;100606.28;5093265;28;1030;-58
2023/10/22 11:34:35;;;;;;;;;;;;;;;16.73;55.17;100599.97;5084963;28;2203;-58
2023/10/22 11:37:00;;;;;;;;;;;;;;;16.69;54.83;100609.03;5092990;28;1113;-56
2023/10/22 11:39:33;;;;;;;;;;;;;;;16.68;54.89;100605.47;5090834;28;1035;-55
2023/10/22 11:42:07;;;;;;;;;;;;;;;16.61;54.95;100613.19;5081579;28;1114;-59
2023/10/22 11:44:33;;;;;;;;;;;;;;;16.60;54.62;100603.28;5079398;28;1087;-57
2023/10/22 11:46:59;;;;;;;;;;;;;;;16.58;54.94;100602.75;5076440;28;1156;-56
2023/10/22 11:49:25;;;;;;;;;;;;;;;16.52;54.85;100604.69;5087442;28;1027;-57
2023/10/22 11:51:50;;;;;;;;;;;;;;;16.51;54.87;100603.03;5077325;28;1120;-58
2023/10/22 11:54:16;;;;;;;;;;;;;;;17.56;53.79;100605.16;5075121;28;1914;-59
2023/10/22 11:56:41;;;;;;;;;;;;;;;17.18;54.87;100599.28;5089904;28;1118;-58
2023/10/22 11:59:07;;;;;;;;;;;;;;;17.00;54.99;100607.06;5087563;28;1037;-57
2023/10/22 12:01:33;;;;;;;;;;;;;;;16.83;55.12;100607.38;5075719;28;1030;-56
2023/10/22 12:03:58;;;;;;;;;;;;;;;16.76;55.26;100613.16;5083042;28;1974;-59
2023/10/22 12:06:24;;;;;;;;;;;;;;;16.75;54.87;100611.50;5082966;28;1104;-58
2023/10/22 12:08:49;;;;;;;;;;;;;;;16.73;54.96;100615.63;5087616;28;1054;-56
2023/10/22 12:11:15;;;;;;;;;;;;;;;16.67;54.94;100611.25;5089754;28;1024;-57
2023/10/22 12:13:41;;;;;;;;;;;;;;;16.64;54.98;100609.06;5096945;28;1905;-57
2023/10/22 12:16:06;;;;;;;;;;;;;;;16.63;54.96;100615.66;5094093;28;844;-58
2023/10/22 12:18:32;;;;;;;;;;;;;;;17.47;54.11;100604.91;5078303;28;1127;-56
2023/10/22 12:20:57;;;;;;;;;;;;;;;17.20;54.64;100605.34;5093241;28;984;-56
2023/10/22 12:23:24;;;;;;;;;;;;;;;16.98;55.24;100606.50;5091030;28;1019;-57
2023/10/22 12:25:50;;;;;;;;;;;;;;;16.92;55.11;100608.44;5093015;28;1168;-58
2023/10/22 12:28:15;;;;;;;;;;;;;;;16.85;54.96;100602.41;5094678;28;1078;-57
2023/10/22 12:30:41;;;;;;;;;;;;;;;16.77;55.11;100603.81;5082461;28;1594;-56
2023/10/22 12:33:08;;;;;;;;;;;;;;;16.75;55.03;100611.50;5082457;28;2021;-59
2023/10/22 12:35:37;;;;;;;;;;;;;;;16.73;55.01;100610.97;5098388;28;1910;-57
2023/10/22 12:38:03;;;;;;;;;;;;;;;16.66;55.11;100599.44;5080463;28;1174;-58
2023/10/22 12:40:29;;;;;;;;;;;;;;;16.60;55.15;100606.84;5089748;28;938;-60
2023/10/22 12:42:55;;;;;;;;;;;;;;;16.60;54.79;100606.03;5098339;28;1019;-60